sensor_id;sensor_type;location;lat;lon;timestamp;temperature;humidity
75363;DHT22;64122;51.988;5.892;2022-10-16T00:02:14;14.60;70.27
75363;DHT22;64122;51.988;5.892;2022-10-16T00:04:43;14.58;70.19
75363;DHT22;64122;51.988;5.892;2022-10-16T00:07:13;14.56;70.34
75363;DHT22;64122;51.988;5.892;2022-10-16T00:09:42;14.54;70.26
75363;DHT22;64122;51.988;5.892;2022-10-16T00:12:11;14.52;70.38
75363;DHT22;64122;51.988;5.892;2022-10-16T00:14:43;14.49;70.40
75363;DHT22;64122;51.988;5.892;2022-10-16T00:17:13;14.51;70.19
75363;DHT22;64122;51.988;5.892;2022-10-16T00:19:42;14.50;70.34
75363;DHT22;64122;51.988;5.892;2022-10-16T00:22:11;14.51;70.52
75363;DHT22;64122;51.988;5.892;2022-10-16T00:24:41;14.51;70.48
75363;DHT22;64122;51.988;5.892;2022-10-16T00:27:10;14.51;70.42
75363;DHT22;64122;51.988;5.892;2022-10-16T00:29:39;14.51;70.48
75363;DHT22;64122;51.988;5.892;2022-10-16T00:32:11;14.49;70.47
75363;DHT22;64122;51.988;5.892;2022-10-16T00:34:41;14.51;70.49
75363;DHT22;64122;51.988;5.892;2022-10-16T00:37:10;14.49;70.54
75363;DHT22;64122;51.988;5.892;2022-10-16T00:39:40;14.47;70.75
75363;DHT22;64122;51.988;5.892;2022-10-16T00:42:13;14.42;70.74
75363;DHT22;64122;51.988;5.892;2022-10-16T00:44:47;14.41;70.96
75363;DHT22;64122;51.988;5.892;2022-10-16T00:47:25;14.39;71.06
75363;DHT22;64122;51.988;5.892;2022-10-16T00:50:01;14.41;71.00
75363;DHT22;64122;51.988;5.892;2022-10-16T00:52:31;14.42;71.02
75363;DHT22;64122;51.988;5.892;2022-10-16T00:55:02;14.42;71.16
75363;DHT22;64122;51.988;5.892;2022-10-16T00:57:32;14.41;71.26
75363;DHT22;64122;51.988;5.892;2022-10-16T01:00:03;14.42;71.26
75363;DHT22;64122;51.988;5.892;2022-10-16T01:02:36;14.42;71.33
75363;DHT22;64122;51.988;5.892;2022-10-16T01:05:06;14.45;71.46
75363;DHT22;64122;51.988;5.892;2022-10-16T01:07:43;14.43;71.38
75363;DHT22;64122;51.988;5.892;2022-10-16T01:10:24;14.42;71.47
75363;DHT22;64122;51.988;5.892;2022-10-16T01:12:59;14.45;71.61
75363;DHT22;64122;51.988;5.892;2022-10-16T01:15:33;14.45;71.64
75363;DHT22;64122;51.988;5.892;2022-10-16T01:18:10;14.45;71.72
75363;DHT22;64122;51.988;5.892;2022-10-16T01:20:45;14.47;71.78
75363;DHT22;64122;51.988;5.892;2022-10-16T01:23:27;14.49;71.84
75363;DHT22;64122;51.988;5.892;2022-10-16T01:26:13;14.50;71.80
75363;DHT22;64122;51.988;5.892;2022-10-16T01:28:52;14.50;71.84
75363;DHT22;64122;51.988;5.892;2022-10-16T01:31:24;14.53;71.86
75363;DHT22;64122;51.988;5.892;2022-10-16T01:34:00;14.52;71.92
75363;DHT22;64122;51.988;5.892;2022-10-16T01:36:37;14.54;71.92
75363;DHT22;64122;51.988;5.892;2022-10-16T01:39:11;14.58;71.92
75363;DHT22;64122;51.988;5.892;2022-10-16T01:41:45;14.58;71.89
75363;DHT22;64122;51.988;5.892;2022-10-16T01:44:20;14.62;71.90
75363;DHT22;64122;51.988;5.892;2022-10-16T01:46:52;14.66;71.68
75363;DHT22;64122;51.988;5.892;2022-10-16T01:49:26;14.68;71.69
75363;DHT22;64122;51.988;5.892;2022-10-16T01:51:59;14.70;71.69
75363;DHT22;64122;51.988;5.892;2022-10-16T01:54:30;14.69;71.74
75363;DHT22;64122;51.988;5.892;2022-10-16T01:57:00;14.79;71.44
75363;DHT22;64122;51.988;5.892;2022-10-16T01:59:37;14.83;71.45
75363;DHT22;64122;51.988;5.892;2022-10-16T02:02:10;14.86;71.42
75363;DHT22;64122;51.988;5.892;2022-10-16T02:04:45;14.87;71.38
75363;DHT22;64122;51.988;5.892;2022-10-16T02:07:14;14.86;71.39
75363;DHT22;64122;51.988;5.892;2022-10-16T02:09:44;14.85;71.52
75363;DHT22;64122;51.988;5.892;2022-10-16T02:12:26;14.79;71.61
75363;DHT22;64122;51.988;5.892;2022-10-16T02:15:00;14.81;71.49
75363;DHT22;64122;51.988;5.892;2022-10-16T02:17:30;14.88;71.44
75363;DHT22;64122;51.988;5.892;2022-10-16T02:20:00;14.93;71.36
75363;DHT22;64122;51.988;5.892;2022-10-16T02:22:32;14.94;71.29
75363;DHT22;64122;51.988;5.892;2022-10-16T02:25:07;14.95;71.26
75363;DHT22;64122;51.988;5.892;2022-10-16T02:27:41;14.96;71.26
75363;DHT22;64122;51.988;5.892;2022-10-16T02:30:19;14.93;71.39
75363;DHT22;64122;51.988;5.892;2022-10-16T02:32:50;14.93;71.36
75363;DHT22;64122;51.988;5.892;2022-10-16T02:35:22;14.93;71.40
75363;DHT22;64122;51.988;5.892;2022-10-16T02:37:53;14.92;71.38
75363;DHT22;64122;51.988;5.892;2022-10-16T02:40:24;14.92;71.41
75363;DHT22;64122;51.988;5.892;2022-10-16T02:42:55;14.91;71.47
75363;DHT22;64122;51.988;5.892;2022-10-16T02:45:27;14.85;71.50
75363;DHT22;64122;51.988;5.892;2022-10-16T02:47:56;14.85;71.61
75363;DHT22;64122;51.988;5.892;2022-10-16T02:50:26;14.83;71.73
75363;DHT22;64122;51.988;5.892;2022-10-16T02:52:55;14.82;71.72
75363;DHT22;64122;51.988;5.892;2022-10-16T02:55:24;14.80;71.77
75363;DHT22;64122;51.988;5.892;2022-10-16T02:57:54;14.75;71.84
75363;DHT22;64122;51.988;5.892;2022-10-16T03:00:24;14.69;71.99
75363;DHT22;64122;51.988;5.892;2022-10-16T03:02:56;14.63;72.13
75363;DHT22;64122;51.988;5.892;2022-10-16T03:05:25;14.65;72.23
75363;DHT22;64122;51.988;5.892;2022-10-16T03:07:55;14.66;72.27
75363;DHT22;64122;51.988;5.892;2022-10-16T03:10:26;14.73;72.08
75363;DHT22;64122;51.988;5.892;2022-10-16T03:12:55;14.79;71.96
75363;DHT22;64122;51.988;5.892;2022-10-16T03:15:25;14.82;71.75
75363;DHT22;64122;51.988;5.892;2022-10-16T03:17:57;14.80;71.77
75363;DHT22;64122;51.988;5.892;2022-10-16T03:20:27;14.80;71.81
75363;DHT22;64122;51.988;5.892;2022-10-16T03:22:56;14.77;71.88
75363;DHT22;64122;51.988;5.892;2022-10-16T03:25:26;14.73;71.96
75363;DHT22;64122;51.988;5.892;2022-10-16T03:27:55;14.71;71.97
75363;DHT22;64122;51.988;5.892;2022-10-16T03:30:25;14.70;72.00
75363;DHT22;64122;51.988;5.892;2022-10-16T03:32:57;14.69;72.03
75363;DHT22;64122;51.988;5.892;2022-10-16T03:35:26;14.72;72.00
75363;DHT22;64122;51.988;5.892;2022-10-16T03:37:57;14.71;71.97
75363;DHT22;64122;51.988;5.892;2022-10-16T03:40:26;14.72;71.94
75363;DHT22;64122;51.988;5.892;2022-10-16T03:42:57;14.73;71.84
75363;DHT22;64122;51.988;5.892;2022-10-16T03:45:27;14.72;71.96
75363;DHT22;64122;51.988;5.892;2022-10-16T03:47:59;14.70;71.94
75363;DHT22;64122;51.988;5.892;2022-10-16T03:50:29;14.70;72.01
75363;DHT22;64122;51.988;5.892;2022-10-16T03:52:59;14.70;72.00
75363;DHT22;64122;51.988;5.892;2022-10-16T03:55:28;14.69;72.02
75363;DHT22;64122;51.988;5.892;2022-10-16T03:57:57;14.67;72.00
75363;DHT22;64122;51.988;5.892;2022-10-16T04:00:27;14.66;72.07
75363;DHT22;64122;51.988;5.892;2022-10-16T04:02:59;14.62;72.00
75363;DHT22;64122;51.988;5.892;2022-10-16T04:05:28;14.62;72.08
75363;DHT22;64122;51.988;5.892;2022-10-16T04:07:57;14.63;72.10
75363;DHT22;64122;51.988;5.892;2022-10-16T04:10:27;14.60;72.09
75363;DHT22;64122;51.988;5.892;2022-10-16T04:12:56;14.63;72.08
75363;DHT22;64122;51.988;5.892;2022-10-16T04:15:26;14.65;72.01
75363;DHT22;64122;51.988;5.892;2022-10-16T04:17:55;14.70;71.90
75363;DHT22;64122;51.988;5.892;2022-10-16T04:20:27;14.73;71.80
75363;DHT22;64122;51.988;5.892;2022-10-16T04:22:56;14.82;71.60
75363;DHT22;64122;51.988;5.892;2022-10-16T04:25:26;14.83;71.55
75363;DHT22;64122;51.988;5.892;2022-10-16T04:27:55;14.84;71.55
75363;DHT22;64122;51.988;5.892;2022-10-16T04:30:25;14.87;71.58
75363;DHT22;64122;51.988;5.892;2022-10-16T04:32:54;14.87;71.45
75363;DHT22;64122;51.988;5.892;2022-10-16T04:35:26;14.88;71.47
75363;DHT22;64122;51.988;5.892;2022-10-16T04:37:57;14.88;71.47
75363;DHT22;64122;51.988;5.892;2022-10-16T04:40:26;14.91;71.38
75363;DHT22;64122;51.988;5.892;2022-10-16T04:42:59;14.93;71.39
75363;DHT22;64122;51.988;5.892;2022-10-16T04:45:28;14.89;71.40
75363;DHT22;64122;51.988;5.892;2022-10-16T04:47:58;14.84;71.53
75363;DHT22;64122;51.988;5.892;2022-10-16T04:50:30;14.75;71.69
75363;DHT22;64122;51.988;5.892;2022-10-16T04:53:06;14.75;71.77
75363;DHT22;64122;51.988;5.892;2022-10-16T04:55:35;14.71;71.84
75363;DHT22;64122;51.988;5.892;2022-10-16T04:58:05;14.70;71.99
75363;DHT22;64122;51.988;5.892;2022-10-16T05:00:34;14.71;71.93
75363;DHT22;64122;51.988;5.892;2022-10-16T05:03:04;14.72;71.93
75363;DHT22;64122;51.988;5.892;2022-10-16T05:05:42;14.72;71.89
75363;DHT22;64122;51.988;5.892;2022-10-16T05:08:13;14.75;71.80
75363;DHT22;64122;51.988;5.892;2022-10-16T05:10:44;14.75;71.72
75363;DHT22;64122;51.988;5.892;2022-10-16T05:13:13;14.74;71.80
75363;DHT22;64122;51.988;5.892;2022-10-16T05:15:46;14.68;71.91
75363;DHT22;64122;51.988;5.892;2022-10-16T05:18:16;14.68;71.97
75363;DHT22;64122;51.988;5.892;2022-10-16T05:20:48;14.59;72.14
75363;DHT22;64122;51.988;5.892;2022-10-16T05:23:17;14.57;72.17
75363;DHT22;64122;51.988;5.892;2022-10-16T05:25:52;14.52;72.24
75363;DHT22;64122;51.988;5.892;2022-10-16T05:28:25;14.51;72.29
75363;DHT22;64122;51.988;5.892;2022-10-16T05:30:54;14.49;72.25
75363;DHT22;64122;51.988;5.892;2022-10-16T05:33:25;14.47;72.30
75363;DHT22;64122;51.988;5.892;2022-10-16T05:36:00;14.41;72.38
75363;DHT22;64122;51.988;5.892;2022-10-16T05:38:29;14.42;72.43
75363;DHT22;64122;51.988;5.892;2022-10-16T05:40:58;14.39;72.55
75363;DHT22;64122;51.988;5.892;2022-10-16T05:43:28;14.34;72.62
75363;DHT22;64122;51.988;5.892;2022-10-16T05:45:59;14.29;72.74
75363;DHT22;64122;51.988;5.892;2022-10-16T05:48:29;14.26;72.90
75363;DHT22;64122;51.988;5.892;2022-10-16T05:51:03;14.21;72.91
75363;DHT22;64122;51.988;5.892;2022-10-16T05:53:34;14.19;72.97
75363;DHT22;64122;51.988;5.892;2022-10-16T05:56:05;14.15;72.99
75363;DHT22;64122;51.988;5.892;2022-10-16T05:58:36;14.15;73.03
75363;DHT22;64122;51.988;5.892;2022-10-16T06:01:09;14.13;73.05
75363;DHT22;64122;51.988;5.892;2022-10-16T06:03:38;14.13;73.14
75363;DHT22;64122;51.988;5.892;2022-10-16T06:06:12;14.09;73.15
75363;DHT22;64122;51.988;5.892;2022-10-16T06:08:43;14.09;73.15
75363;DHT22;64122;51.988;5.892;2022-10-16T06:11:15;14.09;73.12
75363;DHT22;64122;51.988;5.892;2022-10-16T06:13:44;14.10;73.16
75363;DHT22;64122;51.988;5.892;2022-10-16T06:16:14;14.10;73.19
75363;DHT22;64122;51.988;5.892;2022-10-16T06:18:44;14.13;73.19
75363;DHT22;64122;51.988;5.892;2022-10-16T06:21:18;14.14;73.13
75363;DHT22;64122;51.988;5.892;2022-10-16T06:23:48;14.24;72.99
75363;DHT22;64122;51.988;5.892;2022-10-16T06:26:19;14.32;72.83
75363;DHT22;64122;51.988;5.892;2022-10-16T06:28:49;14.40;72.64
75363;DHT22;64122;51.988;5.892;2022-10-16T06:31:19;14.44;72.60
75363;DHT22;64122;51.988;5.892;2022-10-16T06:33:50;14.50;72.48
75363;DHT22;64122;51.988;5.892;2022-10-16T06:36:24;14.55;72.38
75363;DHT22;64122;51.988;5.892;2022-10-16T06:38:53;14.59;72.37
75363;DHT22;64122;51.988;5.892;2022-10-16T06:41:23;14.64;72.32
75363;DHT22;64122;51.988;5.892;2022-10-16T06:43:52;14.72;72.16
75363;DHT22;64122;51.988;5.892;2022-10-16T06:46:23;14.81;71.98
75363;DHT22;64122;51.988;5.892;2022-10-16T06:48:53;14.85;71.92
75363;DHT22;64122;51.988;5.892;2022-10-16T06:51:25;14.92;71.80
75363;DHT22;64122;51.988;5.892;2022-10-16T06:53:56;15.00;71.61
75363;DHT22;64122;51.988;5.892;2022-10-16T06:56:26;15.04;71.46
75363;DHT22;64122;51.988;5.892;2022-10-16T06:58:56;15.08;71.45
75363;DHT22;64122;51.988;5.892;2022-10-16T07:01:26;15.14;71.33
75363;DHT22;64122;51.988;5.892;2022-10-16T07:03:56;15.19;71.28
75363;DHT22;64122;51.988;5.892;2022-10-16T07:06:32;15.23;71.22
75363;DHT22;64122;51.988;5.892;2022-10-16T07:09:04;15.24;71.22
75363;DHT22;64122;51.988;5.892;2022-10-16T07:11:38;15.28;71.14
75363;DHT22;64122;51.988;5.892;2022-10-16T07:14:20;15.34;71.06
75363;DHT22;64122;51.988;5.892;2022-10-16T07:16:49;15.42;70.90
75363;DHT22;64122;51.988;5.892;2022-10-16T07:19:19;15.44;70.85
75363;DHT22;64122;51.988;5.892;2022-10-16T07:21:51;15.51;70.74
75363;DHT22;64122;51.988;5.892;2022-10-16T07:24:20;15.66;70.42
75363;DHT22;64122;51.988;5.892;2022-10-16T07:26:50;15.80;70.12
75363;DHT22;64122;51.988;5.892;2022-10-16T07:29:21;15.88;69.76
75363;DHT22;64122;51.988;5.892;2022-10-16T07:31:50;15.93;69.57
75363;DHT22;64122;51.988;5.892;2022-10-16T07:34:20;16.05;69.27
75363;DHT22;64122;51.988;5.892;2022-10-16T07:36:52;16.21;68.84
75363;DHT22;64122;51.988;5.892;2022-10-16T07:39:22;16.54;68.13
75363;DHT22;64122;51.988;5.892;2022-10-16T07:41:51;16.66;67.76
75363;DHT22;64122;51.988;5.892;2022-10-16T07:44:20;16.79;67.44
75363;DHT22;64122;51.988;5.892;2022-10-16T07:46:50;16.81;67.43
75363;DHT22;64122;51.988;5.892;2022-10-16T07:49:19;16.74;67.62
75363;DHT22;64122;51.988;5.892;2022-10-16T07:51:48;16.76;67.72
75363;DHT22;64122;51.988;5.892;2022-10-16T07:54:20;17.15;66.49
75363;DHT22;64122;51.988;5.892;2022-10-16T07:56:49;17.35;65.95
75363;DHT22;64122;51.988;5.892;2022-10-16T07:59:19;17.53;65.46
75363;DHT22;64122;51.988;5.892;2022-10-16T08:01:48;17.93;64.52
75363;DHT22;64122;51.988;5.892;2022-10-16T08:04:18;18.58;62.59
75363;DHT22;64122;51.988;5.892;2022-10-16T08:06:47;20.32;57.49
75363;DHT22;64122;51.988;5.892;2022-10-16T08:09:16;21.92;52.88
75363;DHT22;64122;51.988;5.892;2022-10-16T08:11:48;22.35;52.34
75363;DHT22;64122;51.988;5.892;2022-10-16T08:14:18;23.91;48.31
75363;DHT22;64122;51.988;5.892;2022-10-16T08:16:48;24.49;46.83
75363;DHT22;64122;51.988;5.892;2022-10-16T08:19:20;24.47;46.85
75363;DHT22;64122;51.988;5.892;2022-10-16T08:21:49;25.89;43.64
75363;DHT22;64122;51.988;5.892;2022-10-16T08:24:18;26.32;43.03
75363;DHT22;64122;51.988;5.892;2022-10-16T08:26:55;25.38;45.50
75363;DHT22;64122;51.988;5.892;2022-10-16T08:29:24;23.56;48.67
75363;DHT22;64122;51.988;5.892;2022-10-16T08:31:53;23.15;49.78
75363;DHT22;64122;51.988;5.892;2022-10-16T08:34:23;22.80;50.33
75363;DHT22;64122;51.988;5.892;2022-10-16T08:36:53;22.63;50.68
75363;DHT22;64122;51.988;5.892;2022-10-16T08:39:23;22.35;51.30
75363;DHT22;64122;51.988;5.892;2022-10-16T08:42:05;22.57;50.92
75363;DHT22;64122;51.988;5.892;2022-10-16T08:45:02;23.56;48.49
75363;DHT22;64122;51.988;5.892;2022-10-16T08:47:48;22.99;49.35
75363;DHT22;64122;51.988;5.892;2022-10-16T08:50:23;23.10;48.93
75363;DHT22;64122;51.988;5.892;2022-10-16T08:52:55;23.85;47.05
75363;DHT22;64122;51.988;5.892;2022-10-16T08:55:38;24.17;47.36
75363;DHT22;64122;51.988;5.892;2022-10-16T08:58:15;23.55;47.89
75363;DHT22;64122;51.988;5.892;2022-10-16T09:00:46;23.75;47.28
75363;DHT22;64122;51.988;5.892;2022-10-16T09:03:24;23.56;48.11
75363;DHT22;64122;51.988;5.892;2022-10-16T09:06:17;23.20;49.50
75363;DHT22;64122;51.988;5.892;2022-10-16T09:08:59;22.97;49.25
75363;DHT22;64122;51.988;5.892;2022-10-16T09:11:41;22.98;49.60
75363;DHT22;64122;51.988;5.892;2022-10-16T09:14:32;23.01;49.47
75363;DHT22;64122;51.988;5.892;2022-10-16T09:17:20;22.66;49.74
75363;DHT22;64122;51.988;5.892;2022-10-16T09:19:56;22.40;50.24
75363;DHT22;64122;51.988;5.892;2022-10-16T09:22:31;22.28;50.88
75363;DHT22;64122;51.988;5.892;2022-10-16T09:25:11;22.16;51.08
75363;DHT22;64122;51.988;5.892;2022-10-16T09:27:42;21.90;51.12
75363;DHT22;64122;51.988;5.892;2022-10-16T09:30:18;21.69;51.88
75363;DHT22;64122;51.988;5.892;2022-10-16T09:32:51;21.50;52.45
75363;DHT22;64122;51.988;5.892;2022-10-16T09:35:24;21.35;52.98
75363;DHT22;64122;51.988;5.892;2022-10-16T09:37:56;21.31;53.40
75363;DHT22;64122;51.988;5.892;2022-10-16T09:40:28;21.23;53.71
75363;DHT22;64122;51.988;5.892;2022-10-16T09:43:02;21.05;54.30
75363;DHT22;64122;51.988;5.892;2022-10-16T09:45:37;20.92;54.48
75363;DHT22;64122;51.988;5.892;2022-10-16T09:48:10;20.73;56.10
75363;DHT22;64122;51.988;5.892;2022-10-16T09:50:40;20.60;55.04
75363;DHT22;64122;51.988;5.892;2022-10-16T09:53:12;20.44;55.75
75363;DHT22;64122;51.988;5.892;2022-10-16T09:55:48;20.41;55.91
75363;DHT22;64122;51.988;5.892;2022-10-16T09:58:21;20.34;56.06
75363;DHT22;64122;51.988;5.892;2022-10-16T10:00:54;20.33;56.39
75363;DHT22;64122;51.988;5.892;2022-10-16T10:03:34;20.30;56.42
75363;DHT22;64122;51.988;5.892;2022-10-16T10:06:15;20.30;56.44
75363;DHT22;64122;51.988;5.892;2022-10-16T10:08:56;20.39;56.47
75363;DHT22;64122;51.988;5.892;2022-10-16T10:11:50;20.44;56.09
75363;DHT22;64122;51.988;5.892;2022-10-16T10:14:31;20.43;55.88
75363;DHT22;64122;51.988;5.892;2022-10-16T10:17:12;20.47;55.91
75363;DHT22;64122;51.988;5.892;2022-10-16T10:19:49;20.57;55.66
75363;DHT22;64122;51.988;5.892;2022-10-16T10:22:26;20.66;55.55
75363;DHT22;64122;51.988;5.892;2022-10-16T10:24:59;20.74;55.31
75363;DHT22;64122;51.988;5.892;2022-10-16T10:27:39;20.83;55.43
75363;DHT22;64122;51.988;5.892;2022-10-16T10:30:15;20.88;54.69
75363;DHT22;64122;51.988;5.892;2022-10-16T10:33:06;20.96;54.78
75363;DHT22;64122;51.988;5.892;2022-10-16T10:35:44;20.98;54.00
75363;DHT22;64122;51.988;5.892;2022-10-16T10:38:24;20.91;53.52
75363;DHT22;64122;51.988;5.892;2022-10-16T10:41:04;21.03;53.42
75363;DHT22;64122;51.988;5.892;2022-10-16T10:43:49;21.24;52.94
75363;DHT22;64122;51.988;5.892;2022-10-16T10:46:25;21.39;51.95
75363;DHT22;64122;51.988;5.892;2022-10-16T10:49:20;21.34;52.31
75363;DHT22;64122;51.988;5.892;2022-10-16T10:52:05;21.32;52.19
75363;DHT22;64122;51.988;5.892;2022-10-16T10:54:46;21.40;52.04
75363;DHT22;64122;51.988;5.892;2022-10-16T10:57:25;21.46;51.10
75363;DHT22;64122;51.988;5.892;2022-10-16T11:00:15;21.23;51.62
75363;DHT22;64122;51.988;5.892;2022-10-16T11:02:50;21.21;51.30
75363;DHT22;64122;51.988;5.892;2022-10-16T11:05:40;21.22;51.82
75363;DHT22;64122;51.988;5.892;2022-10-16T11:09:52;21.28;51.27
75363;DHT22;64122;51.988;5.892;2022-10-16T11:12:27;21.32;50.86
75363;DHT22;64122;51.988;5.892;2022-10-16T11:15:02;21.31;50.76
75363;DHT22;64122;51.988;5.892;2022-10-16T11:17:35;21.33;50.08
75363;DHT22;64122;51.988;5.892;2022-10-16T11:20:14;21.38;50.20
75363;DHT22;64122;51.988;5.892;2022-10-16T11:22:50;21.32;48.89
75363;DHT22;64122;51.988;5.892;2022-10-16T11:25:27;20.96;48.93
75363;DHT22;64122;51.988;5.892;2022-10-16T11:28:01;20.91;49.82
75363;DHT22;64122;51.988;5.892;2022-10-16T11:33:28;20.95;49.60
75363;DHT22;64122;51.988;5.892;2022-10-16T11:36:06;21.06;49.11
75363;DHT22;64122;51.988;5.892;2022-10-16T11:38:43;20.96;49.56
75363;DHT22;64122;51.988;5.892;2022-10-16T11:41:22;21.01;48.94
75363;DHT22;64122;51.988;5.892;2022-10-16T11:44:04;21.17;48.93
75363;DHT22;64122;51.988;5.892;2022-10-16T11:46:38;21.22;48.45
75363;DHT22;64122;51.988;5.892;2022-10-16T11:49:14;21.18;48.92
75363;DHT22;64122;51.988;5.892;2022-10-16T11:51:50;21.08;48.95
75363;DHT22;64122;51.988;5.892;2022-10-16T11:54:28;21.09;49.00
75363;DHT22;64122;51.988;5.892;2022-10-16T11:57:03;21.21;48.61
75363;DHT22;64122;51.988;5.892;2022-10-16T11:59:42;21.27;48.72
75363;DHT22;64122;51.988;5.892;2022-10-16T12:02:37;21.21;49.14
75363;DHT22;64122;51.988;5.892;2022-10-16T12:05:19;21.09;48.66
75363;DHT22;64122;51.988;5.892;2022-10-16T12:07:56;21.05;48.69
75363;DHT22;64122;51.988;5.892;2022-10-16T12:10:34;21.01;48.62
75363;DHT22;64122;51.988;5.892;2022-10-16T12:13:31;21.03;48.65
75363;DHT22;64122;51.988;5.892;2022-10-16T12:16:20;21.00;48.26
75363;DHT22;64122;51.988;5.892;2022-10-16T12:19:08;20.94;48.45
75363;DHT22;64122;51.988;5.892;2022-10-16T12:21:39;20.87;48.02
75363;DHT22;64122;51.988;5.892;2022-10-16T12:24:21;20.87;48.68
75363;DHT22;64122;51.988;5.892;2022-10-16T12:26:52;20.90;48.35
75363;DHT22;64122;51.988;5.892;2022-10-16T12:29:31;20.92;48.86
75363;DHT22;64122;51.988;5.892;2022-10-16T12:32:03;21.03;48.95
75363;DHT22;64122;51.988;5.892;2022-10-16T12:34:38;21.05;49.11
75363;DHT22;64122;51.988;5.892;2022-10-16T12:37:11;21.04;48.80
75363;DHT22;64122;51.988;5.892;2022-10-16T12:39:42;20.91;48.28
75363;DHT22;64122;51.988;5.892;2022-10-16T12:42:33;20.87;48.99
75363;DHT22;64122;51.988;5.892;2022-10-16T12:45:24;20.90;48.62
75363;DHT22;64122;51.988;5.892;2022-10-16T12:47:56;20.98;48.74
75363;DHT22;64122;51.988;5.892;2022-10-16T12:50:35;21.02;49.05
75363;DHT22;64122;51.988;5.892;2022-10-16T12:53:18;21.01;49.50
75363;DHT22;64122;51.988;5.892;2022-10-16T12:55:55;21.00;48.95
75363;DHT22;64122;51.988;5.892;2022-10-16T12:58:42;21.02;49.44
75363;DHT22;64122;51.988;5.892;2022-10-16T13:01:37;21.04;49.45
75363;DHT22;64122;51.988;5.892;2022-10-16T13:07:21;20.99;48.91
75363;DHT22;64122;51.988;5.892;2022-10-16T13:10:06;20.94;48.82
75363;DHT22;64122;51.988;5.892;2022-10-16T13:18:40;20.89;48.22
75363;DHT22;64122;51.988;5.892;2022-10-16T13:21:23;20.88;48.74
75363;DHT22;64122;51.988;5.892;2022-10-16T13:24:03;20.88;48.34
75363;DHT22;64122;51.988;5.892;2022-10-16T13:26:43;20.83;48.56
75363;DHT22;64122;51.988;5.892;2022-10-16T13:29:14;20.85;48.73
75363;DHT22;64122;51.988;5.892;2022-10-16T13:31:44;20.86;48.82
75363;DHT22;64122;51.988;5.892;2022-10-16T13:34:18;20.85;49.25
75363;DHT22;64122;51.988;5.892;2022-10-16T13:36:49;20.71;48.48
75363;DHT22;64122;51.988;5.892;2022-10-16T13:39:22;20.62;49.01
75363;DHT22;64122;51.988;5.892;2022-10-16T13:42:01;20.61;49.47
75363;DHT22;64122;51.988;5.892;2022-10-16T13:44:37;20.66;49.60
75363;DHT22;64122;51.988;5.892;2022-10-16T13:47:16;20.77;49.45
75363;DHT22;64122;51.988;5.892;2022-10-16T13:49:59;20.76;49.50
75363;DHT22;64122;51.988;5.892;2022-10-16T13:52:29;20.74;49.44
75363;DHT22;64122;51.988;5.892;2022-10-16T13:54:59;20.74;49.62
75363;DHT22;64122;51.988;5.892;2022-10-16T13:57:28;20.73;49.46
75363;DHT22;64122;51.988;5.892;2022-10-16T13:59:58;20.74;49.58
75363;DHT22;64122;51.988;5.892;2022-10-16T14:02:32;20.74;49.38
75363;DHT22;64122;51.988;5.892;2022-10-16T14:05:09;20.75;50.08
75363;DHT22;64122;51.988;5.892;2022-10-16T14:07:40;20.77;50.19
75363;DHT22;64122;51.988;5.892;2022-10-16T14:10:20;20.72;49.82
75363;DHT22;64122;51.988;5.892;2022-10-16T14:12:56;20.62;49.60
75363;DHT22;64122;51.988;5.892;2022-10-16T14:15:26;20.62;49.84
75363;DHT22;64122;51.988;5.892;2022-10-16T14:17:55;20.61;49.76
75363;DHT22;64122;51.988;5.892;2022-10-16T14:20:30;20.61;50.37
75363;DHT22;64122;51.988;5.892;2022-10-16T14:23:03;20.61;49.98
75363;DHT22;64122;51.988;5.892;2022-10-16T14:25:32;20.62;49.24
75363;DHT22;64122;51.988;5.892;2022-10-16T14:28:04;20.62;50.11
75363;DHT22;64122;51.988;5.892;2022-10-16T14:30:35;20.63;49.75
75363;DHT22;64122;51.988;5.892;2022-10-16T14:33:06;20.63;49.37
75363;DHT22;64122;51.988;5.892;2022-10-16T14:35:40;20.63;49.56
75363;DHT22;64122;51.988;5.892;2022-10-16T14:38:18;20.69;49.56
75363;DHT22;64122;51.988;5.892;2022-10-16T14:40:49;20.75;49.07
75363;DHT22;64122;51.988;5.892;2022-10-16T14:43:21;20.70;49.18
75363;DHT22;64122;51.988;5.892;2022-10-16T14:45:52;20.66;49.36
75363;DHT22;64122;51.988;5.892;2022-10-16T14:48:22;20.63;48.92
75363;DHT22;64122;51.988;5.892;2022-10-16T14:50:54;20.50;49.79
75363;DHT22;64122;51.988;5.892;2022-10-16T14:53:24;20.46;49.69
75363;DHT22;64122;51.988;5.892;2022-10-16T14:55:53;20.37;49.99
75363;DHT22;64122;51.988;5.892;2022-10-16T14:58:23;20.31;50.30
75363;DHT22;64122;51.988;5.892;2022-10-16T15:00:52;20.26;50.49
75363;DHT22;64122;51.988;5.892;2022-10-16T15:03:22;20.27;51.12
75363;DHT22;64122;51.988;5.892;2022-10-16T15:05:53;20.33;51.11
75363;DHT22;64122;51.988;5.892;2022-10-16T15:08:23;20.36;51.33
75363;DHT22;64122;51.988;5.892;2022-10-16T15:10:52;20.37;51.37
75363;DHT22;64122;51.988;5.892;2022-10-16T15:13:22;20.35;51.43
75363;DHT22;64122;51.988;5.892;2022-10-16T15:15:53;20.29;51.88
75363;DHT22;64122;51.988;5.892;2022-10-16T15:18:22;20.24;51.56
75363;DHT22;64122;51.988;5.892;2022-10-16T15:20:56;20.14;51.73
75363;DHT22;64122;51.988;5.892;2022-10-16T15:23:25;20.07;51.85
75363;DHT22;64122;51.988;5.892;2022-10-16T15:25:55;20.03;52.11
75363;DHT22;64122;51.988;5.892;2022-10-16T15:28:25;19.99;52.76
75363;DHT22;64122;51.988;5.892;2022-10-16T15:30:56;19.91;53.04
75363;DHT22;64122;51.988;5.892;2022-10-16T15:33:27;19.82;53.24
75363;DHT22;64122;51.988;5.892;2022-10-16T15:36:03;19.74;53.13
75363;DHT22;64122;51.988;5.892;2022-10-16T15:38:32;19.74;53.57
75363;DHT22;64122;51.988;5.892;2022-10-16T15:41:02;19.71;53.80
75363;DHT22;64122;51.988;5.892;2022-10-16T15:43:31;19.70;54.13
75363;DHT22;64122;51.988;5.892;2022-10-16T15:46:03;19.67;53.31
75363;DHT22;64122;51.988;5.892;2022-10-16T15:48:33;19.68;53.93
75363;DHT22;64122;51.988;5.892;2022-10-16T15:51:06;19.68;53.97
75363;DHT22;64122;51.988;5.892;2022-10-16T15:53:36;19.70;54.17
75363;DHT22;64122;51.988;5.892;2022-10-16T15:56:06;19.67;53.75
75363;DHT22;64122;51.988;5.892;2022-10-16T15:58:37;19.62;54.04
75363;DHT22;64122;51.988;5.892;2022-10-16T16:01:07;19.59;54.09
75363;DHT22;64122;51.988;5.892;2022-10-16T16:03:38;19.55;54.26
75363;DHT22;64122;51.988;5.892;2022-10-16T16:06:14;19.48;54.71
75363;DHT22;64122;51.988;5.892;2022-10-16T16:08:43;19.42;55.08
75363;DHT22;64122;51.988;5.892;2022-10-16T16:11:14;19.38;54.26
75363;DHT22;64122;51.988;5.892;2022-10-16T16:13:45;19.31;54.49
75363;DHT22;64122;51.988;5.892;2022-10-16T16:16:16;19.24;54.64
75363;DHT22;64122;51.988;5.892;2022-10-16T16:18:53;19.20;55.13
75363;DHT22;64122;51.988;5.892;2022-10-16T16:21:25;19.16;54.91
75363;DHT22;64122;51.988;5.892;2022-10-16T16:23:54;19.13;55.26